sensor_id;sensor_type;location;lat;lon;timestamp;pressure;altitude;pressure_sealevel;temperature;humidity
43125;BME280;49182;50.788;7.318;2023-08-06T00:01:38;99768.09;;;15.39;100.00
43125;BME280;49182;50.788;7.318;2023-08-06T00:06:40;99767.00;;;15.34;100.00
43125;BME280;49182;50.788;7.318;2023-08-06T00:11:44;99705.59;;;15.00;100.00
43125;BME280;49182;50.788;7.318;2023-08-06T00:16:45;99753.78;;;15.26;100.00
43125;BME280;49182;50.788;7.318;2023-08-06T00:21:47;99752.53;;;15.22;100.00
43125;BME280;49182;50.788;7.318;2023-08-06T00:26:50;99735.47;;;15.02;100.00
43125;BME280;49182;50.788;7.318;2023-08-06T00:31:52;99766.81;;;15.21;100.00
43125;BME280;49182;50.788;7.318;2023-08-06T00:36:54;99775.63;;;15.21;100.00
43125;BME280;49182;50.788;7.318;2023-08-06T00:41:57;99710.28;;;14.83;100.00
43125;BME280;49182;50.788;7.318;2023-08-06T00:46:59;99767.09;;;15.26;100.00
43125;BME280;49182;50.788;7.318;2023-08-06T00:52:01;99762.59;;;15.26;100.00
43125;BME280;49182;50.788;7.318;2023-08-06T00:57:07;99758.94;;;15.27;100.00
43125;BME280;49182;50.788;7.318;2023-08-06T01:02:09;99759.56;;;15.29;100.00
43125;BME280;49182;50.788;7.318;2023-08-06T01:07:30;99758.47;;;15.24;100.00
43125;BME280;49182;50.788;7.318;2023-08-06T01:12:44;99758.19;;;15.19;100.00
43125;BME280;49182;50.788;7.318;2023-08-06T01:17:47;99751.88;;;15.20;100.00
43125;BME280;49182;50.788;7.318;2023-08-06T01:22:51;99752.69;;;15.20;100.00
43125;BME280;49182;50.788;7.318;2023-08-06T01:27:58;99746.38;;;15.21;100.00
43125;BME280;49182;50.788;7.318;2023-08-06T01:33:08;99744.53;;;15.22;100.00
43125;BME280;49182;50.788;7.318;2023-08-06T01:38:12;99735.56;;;15.23;100.00
43125;BME280;49182;50.788;7.318;2023-08-06T01:43:14;99733.50;;;15.25;100.00
43125;BME280;49182;50.788;7.318;2023-08-06T01:48:16;99700.44;;;15.13;100.00
43125;BME280;49182;50.788;7.318;2023-08-06T01:53:19;99711.81;;;15.21;100.00
43125;BME280;49182;50.788;7.318;2023-08-06T01:58:21;99715.19;;;15.15;100.00
43125;BME280;49182;50.788;7.318;2023-08-06T02:03:23;99713.28;;;15.09;100.00
43125;BME280;49182;50.788;7.318;2023-08-06T02:08:27;99675.38;;;14.71;100.00
43125;BME280;49182;50.788;7.318;2023-08-06T02:13:28;99704.34;;;14.81;100.00
43125;BME280;49182;50.788;7.318;2023-08-06T02:18:30;99683.34;;;14.71;100.00
43125;BME280;49182;50.788;7.318;2023-08-06T02:23:35;99641.88;;;14.33;100.00
43125;BME280;49182;50.788;7.318;2023-08-06T02:28:37;99695.25;;;14.61;100.00
43125;BME280;49182;50.788;7.318;2023-08-06T02:33:38;99692.94;;;14.57;100.00
43125;BME280;49182;50.788;7.318;2023-08-06T02:38:41;99693.41;;;14.61;100.00
43125;BME280;49182;50.788;7.318;2023-08-06T02:43:43;99679.88;;;14.56;100.00
43125;BME280;49182;50.788;7.318;2023-08-06T02:48:45;99675.91;;;14.52;100.00
43125;BME280;49182;50.788;7.318;2023-08-06T02:53:49;99669.50;;;14.61;100.00
43125;BME280;49182;50.788;7.318;2023-08-06T02:58:52;99664.03;;;14.63;100.00
43125;BME280;49182;50.788;7.318;2023-08-06T03:04:17;99664.66;;;14.65;100.00
43125;BME280;49182;50.788;7.318;2023-08-06T03:09:22;99659.16;;;14.66;100.00
43125;BME280;49182;50.788;7.318;2023-08-06T03:14:26;99654.09;;;14.71;100.00
43125;BME280;49182;50.788;7.318;2023-08-06T03:19:28;99652.72;;;14.75;100.00
43125;BME280;49182;50.788;7.318;2023-08-06T03:24:32;99647.13;;;14.85;100.00
43125;BME280;49182;50.788;7.318;2023-08-06T03:29:34;99636.69;;;14.83;100.00
43125;BME280;49182;50.788;7.318;2023-08-06T03:34:37;99636.19;;;14.94;100.00
43125;BME280;49182;50.788;7.318;2023-08-06T03:39:40;99632.28;;;14.90;100.00
43125;BME280;49182;50.788;7.318;2023-08-06T03:44:42;99628.63;;;14.91;100.00
43125;BME280;49182;50.788;7.318;2023-08-06T03:49:45;99620.53;;;15.00;100.00
43125;BME280;49182;50.788;7.318;2023-08-06T03:54:50;99614.50;;;14.91;100.00
43125;BME280;49182;50.788;7.318;2023-08-06T03:59:52;99622.91;;;14.94;100.00
43125;BME280;49182;50.788;7.318;2023-08-06T04:04:59;99624.56;;;14.95;100.00
43125;BME280;49182;50.788;7.318;2023-08-06T04:10:03;99618.06;;;14.98;100.00
43125;BME280;49182;50.788;7.318;2023-08-06T04:15:06;99618.13;;;15.05;100.00
43125;BME280;49182;50.788;7.318;2023-08-06T04:20:09;99618.13;;;15.05;100.00
43125;BME280;49182;50.788;7.318;2023-08-06T04:25:12;99612.81;;;15.05;100.00
43125;BME280;49182;50.788;7.318;2023-08-06T04:30:14;99613.25;;;15.08;100.00
43125;BME280;49182;50.788;7.318;2023-08-06T04:35:16;99603.09;;;15.12;100.00
43125;BME280;49182;50.788;7.318;2023-08-06T04:40:19;99609.50;;;15.17;100.00
43125;BME280;49182;50.788;7.318;2023-08-06T04:45:21;99609.56;;;15.24;100.00
43125;BME280;49182;50.788;7.318;2023-08-06T04:50:23;99592.31;;;15.20;100.00
43125;BME280;49182;50.788;7.318;2023-08-06T04:55:26;99606.69;;;15.25;100.00
43125;BME280;49182;50.788;7.318;2023-08-06T05:00:28;99607.28;;;15.42;100.00
43125;BME280;49182;50.788;7.318;2023-08-06T05:05:29;99613.72;;;15.33;100.00
43125;BME280;49182;50.788;7.318;2023-08-06T05:10:33;99610.31;;;15.39;100.00
43125;BME280;49182;50.788;7.318;2023-08-06T05:15:34;99611.31;;;15.38;100.00
43125;BME280;49182;50.788;7.318;2023-08-06T05:20:36;99613.16;;;15.37;100.00
43125;BME280;49182;50.788;7.318;2023-08-06T05:25:40;99611.53;;;15.36;100.00
43125;BME280;49182;50.788;7.318;2023-08-06T05:30:42;99611.13;;;15.39;100.00
43125;BME280;49182;50.788;7.318;2023-08-06T05:35:43;99615.81;;;15.37;100.00
43125;BME280;49182;50.788;7.318;2023-08-06T05:40:46;99625.19;;;15.33;100.00
43125;BME280;49182;50.788;7.318;2023-08-06T05:45:49;99612.72;;;15.34;100.00
43125;BME280;49182;50.788;7.318;2023-08-06T05:50:51;99627.50;;;15.58;100.00
43125;BME280;49182;50.788;7.318;2023-08-06T05:55:54;99622.94;;;15.73;100.00
43125;BME280;49182;50.788;7.318;2023-08-06T06:00:56;99626.91;;;15.84;100.00
43125;BME280;49182;50.788;7.318;2023-08-06T06:06:00;99634.91;;;15.84;100.00
43125;BME280;49182;50.788;7.318;2023-08-06T06:11:04;99622.59;;;15.83;100.00
43125;BME280;49182;50.788;7.318;2023-08-06T06:16:05;99631.84;;;15.87;100.00
43125;BME280;49182;50.788;7.318;2023-08-06T06:21:07;99638.22;;;15.86;100.00
43125;BME280;49182;50.788;7.318;2023-08-06T06:26:10;99636.22;;;15.94;100.00
43125;BME280;49182;50.788;7.318;2023-08-06T06:31:12;99639.16;;;16.06;100.00
43125;BME280;49182;50.788;7.318;2023-08-06T06:36:14;99651.88;;;16.04;100.00
43125;BME280;49182;50.788;7.318;2023-08-06T06:41:17;99651.16;;;16.16;100.00
43125;BME280;49182;50.788;7.318;2023-08-06T06:46:18;99651.22;;;16.23;100.00
43125;BME280;49182;50.788;7.318;2023-08-06T06:51:20;99661.28;;;16.28;100.00
43125;BME280;49182;50.788;7.318;2023-08-06T06:56:23;99662.66;;;16.24;100.00
43125;BME280;49182;50.788;7.318;2023-08-06T07:01:26;99614.88;;;15.88;100.00
43125;BME280;49182;50.788;7.318;2023-08-06T07:06:28;99661.75;;;16.38;100.00
43125;BME280;49182;50.788;7.318;2023-08-06T07:11:31;99665.53;;;16.56;100.00
43125;BME280;49182;50.788;7.318;2023-08-06T07:16:33;99666.91;;;16.74;100.00
43125;BME280;49182;50.788;7.318;2023-08-06T07:21:34;99664.72;;;16.84;100.00
43125;BME280;49182;50.788;7.318;2023-08-06T07:26:37;99666.34;;;16.78;100.00
43125;BME280;49182;50.788;7.318;2023-08-06T07:31:40;99677.34;;;16.69;100.00
43125;BME280;49182;50.788;7.318;2023-08-06T07:36:43;99657.63;;;16.63;100.00
43125;BME280;49182;50.788;7.318;2023-08-06T07:41:46;99676.44;;;16.89;100.00
43125;BME280;49182;50.788;7.318;2023-08-06T07:46:48;99673.81;;;17.03;99.25
43125;BME280;49182;50.788;7.318;2023-08-06T07:51:49;99682.06;;;17.08;96.93
43125;BME280;49182;50.788;7.318;2023-08-06T07:56:52;99683.44;;;17.04;97.59
43125;BME280;49182;50.788;7.318;2023-08-06T08:01:54;99682.28;;;17.19;98.99
43125;BME280;49182;50.788;7.318;2023-08-06T08:06:56;99681.69;;;17.24;95.87
43125;BME280;49182;50.788;7.318;2023-08-06T08:11:59;99674.66;;;17.10;94.53
43125;BME280;49182;50.788;7.318;2023-08-06T08:17:02;99598.22;;;16.76;95.85
43125;BME280;49182;50.788;7.318;2023-08-06T08:22:04;99674.94;;;17.34;95.80
43125;BME280;49182;50.788;7.318;2023-08-06T08:27:07;99689.81;;;17.57;91.42
43125;BME280;49182;50.788;7.318;2023-08-06T08:32:09;99687.00;;;17.85;93.37
43125;BME280;49182;50.788;7.318;2023-08-06T08:37:10;99688.84;;;17.91;91.40
43125;BME280;49182;50.788;7.318;2023-08-06T08:42:14;99662.97;;;17.98;91.67
43125;BME280;49182;50.788;7.318;2023-08-06T08:47:16;99697.50;;;18.39;92.15
43125;BME280;49182;50.788;7.318;2023-08-06T08:52:18;99699.09;;;18.53;87.61
43125;BME280;49182;50.788;7.318;2023-08-06T08:57:23;99699.97;;;18.21;89.83
43125;BME280;49182;50.788;7.318;2023-08-06T09:02:28;99711.63;;;17.80;90.13
43125;BME280;49182;50.788;7.318;2023-08-06T09:07:34;99696.25;;;17.95;91.45
43125;BME280;49182;50.788;7.318;2023-08-06T09:12:40;99720.31;;;17.95;91.55
43125;BME280;49182;50.788;7.318;2023-08-06T09:17:42;99715.97;;;18.27;91.05
43125;BME280;49182;50.788;7.318;2023-08-06T09:22:44;99717.44;;;18.36;90.34
43125;BME280;49182;50.788;7.318;2023-08-06T09:27:47;99721.94;;;18.09;90.81
43125;BME280;49182;50.788;7.318;2023-08-06T09:32:49;99731.81;;;18.09;91.39
43125;BME280;49182;50.788;7.318;2023-08-06T09:37:51;99650.31;;;17.32;92.37
43125;BME280;49182;50.788;7.318;2023-08-06T09:42:54;99725.63;;;17.82;92.30
43125;BME280;49182;50.788;7.318;2023-08-06T09:47:56;99725.97;;;17.66;93.81
43125;BME280;49182;50.788;7.318;2023-08-06T09:52:59;99735.19;;;17.57;96.06
43125;BME280;49182;50.788;7.318;2023-08-06T09:58:03;99740.81;;;17.75;95.53
43125;BME280;49182;50.788;7.318;2023-08-06T10:03:06;99741.66;;;18.15;95.28
43125;BME280;49182;50.788;7.318;2023-08-06T10:08:09;99739.63;;;18.24;94.77
43125;BME280;49182;50.788;7.318;2023-08-06T10:13:13;99751.34;;;18.36;93.38
43125;BME280;49182;50.788;7.318;2023-08-06T10:18:16;99751.13;;;18.04;91.47
43125;BME280;49182;50.788;7.318;2023-08-06T10:23:18;99682.50;;;16.49;94.62
43125;BME280;49182;50.788;7.318;2023-08-06T10:28:21;99769.63;;;16.70;97.45
43125;BME280;49182;50.788;7.318;2023-08-06T10:33:23;99763.94;;;16.30;99.38
43125;BME280;49182;50.788;7.318;2023-08-06T10:38:25;99797.44;;;15.97;100.00
43125;BME280;49182;50.788;7.318;2023-08-06T10:43:29;99807.63;;;15.57;100.00
43125;BME280;49182;50.788;7.318;2023-08-06T10:48:34;99809.56;;;15.34;100.00
43125;BME280;49182;50.788;7.318;2023-08-06T10:53:36;99837.25;;;15.10;100.00
43125;BME280;49182;50.788;7.318;2023-08-06T10:58:39;99862.00;;;15.11;100.00
43125;BME280;49182;50.788;7.318;2023-08-06T11:03:42;99856.16;;;14.78;100.00
43125;BME280;49182;50.788;7.318;2023-08-06T11:08:47;99843.03;;;14.62;100.00
43125;BME280;49182;50.788;7.318;2023-08-06T11:13:51;99889.66;;;14.64;100.00
43125;BME280;49182;50.788;7.318;2023-08-06T11:18:53;99900.94;;;14.43;100.00
43125;BME280;49182;50.788;7.318;2023-08-06T11:23:55;99831.81;;;14.06;100.00
43125;BME280;49182;50.788;7.318;2023-08-06T11:28:58;99845.19;;;14.12;100.00
43125;BME280;49182;50.788;7.318;2023-08-06T11:34:00;99880.34;;;14.14;100.00
43125;BME280;49182;50.788;7.318;2023-08-06T11:39:02;99934.38;;;14.30;100.00
43125;BME280;49182;50.788;7.318;2023-08-06T11:44:05;99942.63;;;14.43;100.00
43125;BME280;49182;50.788;7.318;2023-08-06T11:49:07;99958.03;;;14.47;100.00
43125;BME280;49182;50.788;7.318;2023-08-06T11:54:09;99949.31;;;14.31;100.00
43125;BME280;49182;50.788;7.318;2023-08-06T11:59:12;99968.59;;;14.25;100.00
43125;BME280;49182;50.788;7.318;2023-08-06T12:04:14;99967.34;;;14.43;100.00
43125;BME280;49182;50.788;7.318;2023-08-06T12:09:16;99966.72;;;14.64;100.00
43125;BME280;49182;50.788;7.318;2023-08-06T12:14:20;99966.78;;;14.79;100.00
43125;BME280;49182;50.788;7.318;2023-08-06T12:19:21;99978.88;;;14.81;100.00
43125;BME280;49182;50.788;7.318;2023-08-06T12:24:23;99983.81;;;14.92;100.00
43125;BME280;49182;50.788;7.318;2023-08-06T12:29:26;99978.88;;;15.04;100.00
43125;BME280;49182;50.788;7.318;2023-08-06T12:34:28;99983.78;;;15.15;100.00
43125;BME280;49182;50.788;7.318;2023-08-06T12:39:43;99995.84;;;15.03;100.00
43125;BME280;49182;50.788;7.318;2023-08-06T12:44:48;99990.94;;;15.15;100.00
43125;BME280;49182;50.788;7.318;2023-08-06T12:49:49;99994.16;;;15.25;100.00
43125;BME280;49182;50.788;7.318;2023-08-06T12:54:51;99987.78;;;15.34;100.00
43125;BME280;49182;50.788;7.318;2023-08-06T12:59:54;100002.00;;;15.41;100.00
43125;BME280;49182;50.788;7.318;2023-08-06T13:04:56;100005.94;;;15.45;100.00
43125;BME280;49182;50.788;7.318;2023-08-06T13:09:58;100014.09;;;15.29;100.00
43125;BME280;49182;50.788;7.318;2023-08-06T13:15:01;100022.91;;;15.44;100.00
43125;BME280;49182;50.788;7.318;2023-08-06T13:20:03;100004.00;;;15.39;100.00
43125;BME280;49182;50.788;7.318;2023-08-06T13:25:06;100024.69;;;15.52;100.00
43125;BME280;49182;50.788;7.318;2023-08-06T13:30:09;100029.06;;;15.45;100.00
43125;BME280;49182;50.788;7.318;2023-08-06T13:35:11;100052.16;;;15.29;100.00
43125;BME280;49182;50.788;7.318;2023-08-06T13:40:13;100037.06;;;15.45;100.00
43125;BME280;49182;50.788;7.318;2023-08-06T13:45:17;100051.72;;;15.41;100.00
43125;BME280;49182;50.788;7.318;2023-08-06T13:50:19;100050.84;;;15.48;100.00
43125;BME280;49182;50.788;7.318;2023-08-06T13:55:21;100042.34;;;15.53;100.00
43125;BME280;49182;50.788;7.318;2023-08-06T14:00:24;100004.22;;;15.15;100.00
43125;BME280;49182;50.788;7.318;2023-08-06T14:05:26;100054.66;;;15.46;100.00
43125;BME280;49182;50.788;7.318;2023-08-06T14:10:28;100048.78;;;15.35;100.00
43125;BME280;49182;50.788;7.318;2023-08-06T14:15:31;99997.25;;;15.14;100.00
43125;BME280;49182;50.788;7.318;2023-08-06T14:20:33;100070.81;;;15.44;100.00
43125;BME280;49182;50.788;7.318;2023-08-06T14:25:35;100078.03;;;15.58;100.00
43125;BME280;49182;50.788;7.318;2023-08-06T14:30:38;100075.56;;;15.57;100.00
43125;BME280;49182;50.788;7.318;2023-08-06T14:35:39;100071.59;;;15.53;100.00
43125;BME280;49182;50.788;7.318;2023-08-06T14:40:43;99970.28;;;14.79;100.00
43125;BME280;49182;50.788;7.318;2023-08-06T14:45:46;100085.81;;;15.37;100.00
43125;BME280;49182;50.788;7.318;2023-08-06T14:50:48;100091.94;;;15.23;100.00
43125;BME280;49182;50.788;7.318;2023-08-06T14:55:49;100068.03;;;15.15;100.00
43125;BME280;49182;50.788;7.318;2023-08-06T15:00:52;100054.53;;;15.24;99.09
43125;BME280;49182;50.788;7.318;2023-08-06T15:05:54;100094.28;;;15.63;100.00
43125;BME280;49182;50.788;7.318;2023-08-06T15:10:56;100100.72;;;15.54;100.00
43125;BME280;49182;50.788;7.318;2023-08-06T15:15:59;100115.84;;;15.54;100.00
43125;BME280;49182;50.788;7.318;2023-08-06T15:21:01;100125.38;;;15.40;100.00
43125;BME280;49182;50.788;7.318;2023-08-06T15:26:03;100048.03;;;15.04;99.73
43125;BME280;49182;50.788;7.318;2023-08-06T15:31:06;100139.78;;;15.54;100.00
43125;BME280;49182;50.788;7.318;2023-08-06T15:36:07;100124.56;;;15.39;98.48
43125;BME280;49182;50.788;7.318;2023-08-06T15:41:09;100144.97;;;15.47;99.60
43125;BME280;49182;50.788;7.318;2023-08-06T15:46:12;100149.28;;;15.48;100.00
43125;BME280;49182;50.788;7.318;2023-08-06T15:51:14;100150.06;;;15.57;100.00
43125;BME280;49182;50.788;7.318;2023-08-06T15:56:15;100136.31;;;15.53;99.89
43125;BME280;49182;50.788;7.318;2023-08-06T16:01:19;100154.69;;;15.63;97.71
43125;BME280;49182;50.788;7.318;2023-08-06T16:06:20;100155.50;;;15.63;96.85
43125;BME280;49182;50.788;7.318;2023-08-06T16:11:22;100154.00;;;15.38;98.82
43125;BME280;49182;50.788;7.318;2023-08-06T16:16:25;100172.84;;;15.28;100.00
43125;BME280;49182;50.788;7.318;2023-08-06T16:21:27;100172.31;;;15.33;99.44
43125;BME280;49182;50.788;7.318;2023-08-06T16:26:28;100183.38;;;15.22;100.00
43125;BME280;49182;50.788;7.318;2023-08-06T16:31:31;100180.66;;;15.30;100.00
43125;BME280;49182;50.788;7.318;2023-08-06T16:36:33;100210.22;;;15.04;100.00
43125;BME280;49182;50.788;7.318;2023-08-06T16:41:35;100136.28;;;14.69;100.00
43125;BME280;49182;50.788;7.318;2023-08-06T16:46:38;100197.53;;;15.14;100.00
43125;BME280;49182;50.788;7.318;2023-08-06T16:51:40;100222.06;;;14.85;100.00
43125;BME280;49182;50.788;7.318;2023-08-06T16:56:42;100206.41;;;14.98;100.00
43125;BME280;49182;50.788;7.318;2023-08-06T17:01:45;100208.63;;;14.87;100.00
43125;BME280;49182;50.788;7.318;2023-08-06T17:06:47;100159.25;;;14.45;100.00
43125;BME280;49182;50.788;7.318;2023-08-06T17:11:49;100218.28;;;14.72;100.00
43125;BME280;49182;50.788;7.318;2023-08-06T17:16:52;100245.53;;;14.74;100.00
43125;BME280;49182;50.788;7.318;2023-08-06T17:21:54;100234.41;;;14.70;100.00
43125;BME280;49182;50.788;7.318;2023-08-06T17:26:56;100262.00;;;14.61;100.00
43125;BME280;49182;50.788;7.318;2023-08-06T17:31:59;100236.28;;;14.45;100.00
43125;BME280;49182;50.788;7.318;2023-08-06T17:37:01;100252.53;;;14.58;100.00
43125;BME280;49182;50.788;7.318;2023-08-06T17:42:03;100257.69;;;14.60;100.00
43125;BME280;49182;50.788;7.318;2023-08-06T17:47:06;100230.50;;;14.42;100.00
43125;BME280;49182;50.788;7.318;2023-08-06T17:52:08;100281.75;;;14.67;100.00
43125;BME280;49182;50.788;7.318;2023-08-06T17:57:09;100280.41;;;14.79;100.00
43125;BME280;49182;50.788;7.318;2023-08-06T18:02:12;100271.13;;;14.67;100.00
43125;BME280;49182;50.788;7.318;2023-08-06T18:07:15;100289.56;;;14.68;100.00
43125;BME280;49182;50.788;7.318;2023-08-06T18:12:16;100300.03;;;14.62;100.00
43125;BME280;49182;50.788;7.318;2023-08-06T18:17:19;100293.84;;;14.69;100.00
43125;BME280;49182;50.788;7.318;2023-08-06T18:22:21;100300.03;;;14.62;100.00
43125;BME280;49182;50.788;7.318;2023-08-06T18:27:23;100303.19;;;14.57;100.00
43125;BME280;49182;50.788;7.318;2023-08-06T18:32:26;100311.00;;;14.58;100.00
43125;BME280;49182;50.788;7.318;2023-08-06T18:37:28;100317.31;;;14.49;100.00
43125;BME280;49182;50.788;7.318;2023-08-06T18:42:29;100317.66;;;14.54;100.00
43125;BME280;49182;50.788;7.318;2023-08-06T18:47:32;100315.81;;;14.47;100.00
43125;BME280;49182;50.788;7.318;2023-08-06T18:52:34;100317.94;;;14.27;100.00
43125;BME280;49182;50.788;7.318;2023-08-06T18:57:36;100291.88;;;14.14;100.00
43125;BME280;49182;50.788;7.318;2023-08-06T19:02:39;100354.81;;;14.46;100.00
43125;BME280;49182;50.788;7.318;2023-08-06T19:07:41;100332.22;;;14.18;100.00
43125;BME280;49182;50.788;7.318;2023-08-06T19:12:43;100363.41;;;14.24;100.00
43125;BME280;49182;50.788;7.318;2023-08-06T19:17:46;100374.34;;;14.21;100.00
43125;BME280;49182;50.788;7.318;2023-08-06T19:22:48;100381.34;;;14.22;100.00
43125;BME280;49182;50.788;7.318;2023-08-06T19:27:49;100396.91;;;14.09;100.00
43125;BME280;49182;50.788;7.318;2023-08-06T19:32:52;100403.19;;;14.00;100.00
43125;BME280;49182;50.788;7.318;2023-08-06T19:37:54;100416.75;;;13.89;100.00
43125;BME280;49182;50.788;7.318;2023-08-06T19:42:56;100436.84;;;13.91;100.00
43125;BME280;49182;50.788;7.318;2023-08-06T19:47:59;100433.97;;;13.85;100.00
43125;BME280;49182;50.788;7.318;2023-08-06T19:53:00;100225.66;;;12.54;100.00
43125;BME280;49182;50.788;7.318;2023-08-06T19:58:02;100433.94;;;13.76;100.00
43125;BME280;49182;50.788;7.318;2023-08-06T20:03:05;100435.78;;;13.76;100.00
43125;BME280;49182;50.788;7.318;2023-08-06T20:08:07;100449.50;;;13.71;100.00
43125;BME280;49182;50.788;7.318;2023-08-06T20:13:09;100443.38;;;13.71;100.00
43125;BME280;49182;50.788;7.318;2023-08-06T20:18:12;100454.78;;;13.63;100.00
43125;BME280;49182;50.788;7.318;2023-08-06T20:23:14;100455.09;;;13.60;100.00
43125;BME280;49182;50.788;7.318;2023-08-06T20:28:16;100453.97;;;13.71;100.00
43125;BME280;49182;50.788;7.318;2023-08-06T20:33:19;100464.59;;;13.71;100.00
43125;BME280;49182;50.788;7.318;2023-08-06T20:38:20;100461.59;;;13.66;100.00
43125;BME280;49182;50.788;7.318;2023-08-06T20:43:22;100442.94;;;13.50;100.00
43125;BME280;49182;50.788;7.318;2023-08-06T20:48:25;100480.16;;;13.66;100.00
43125;BME280;49182;50.788;7.318;2023-08-06T20:53:27;100476.84;;;13.64;100.00
43125;BME280;49182;50.788;7.318;2023-08-06T20:58:29;100493.56;;;13.64;100.00
43125;BME280;49182;50.788;7.318;2023-08-06T21:03:32;100493.19;;;13.51;100.00
43125;BME280;49182;50.788;7.318;2023-08-06T21:08:35;100490.16;;;13.46;100.00
43125;BME280;49182;50.788;7.318;2023-08-06T21:13:37;100496.28;;;13.47;100.00
43125;BME280;49182;50.788;7.318;2023-08-06T21:18:40;100491.81;;;13.47;100.00
43125;BME280;49182;50.788;7.318;2023-08-06T21:23:42;100491.94;;;13.38;100.00
43125;BME280;49182;50.788;7.318;2023-08-06T21:28:43;100479.81;;;13.35;100.00
43125;BME280;49182;50.788;7.318;2023-08-06T21:33:47;100500.97;;;13.53;100.00
43125;BME280;49182;50.788;7.318;2023-08-06T21:38:48;100502.56;;;13.46;100.00
43125;BME280;49182;50.788;7.318;2023-08-06T21:43:50;100505.06;;;13.47;100.00
43125;BME280;49182;50.788;7.318;2023-08-06T21:48:53;100487.81;;;13.43;100.00
43125;BME280;49182;50.788;7.318;2023-08-06T21:53:55;100509.25;;;13.50;100.00
43125;BME280;49182;50.788;7.318;2023-08-06T21:59:00;100506.69;;;13.40;100.00
43125;BME280;49182;50.788;7.318;2023-08-06T22:04:03;100504.88;;;13.41;100.00
43125;BME280;49182;50.788;7.318;2023-08-06T22:09:05;100503.81;;;13.33;100.00
43125;BME280;49182;50.788;7.318;2023-08-06T22:14:07;100507.63;;;13.31;100.00
43125;BME280;49182;50.788;7.318;2023-08-06T22:19:10;100496.22;;;13.13;100.00
43125;BME280;49182;50.788;7.318;2023-08-06T22:24:11;100506.22;;;13.19;100.00
43125;BME280;49182;50.788;7.318;2023-08-06T22:29:13;100457.28;;;12.78;100.00
43125;BME280;49182;50.788;7.318;2023-08-06T22:34:16;100479.84;;;13.00;100.00
43125;BME280;49182;50.788;7.318;2023-08-06T22:39:18;100495.28;;;13.04;100.00
43125;BME280;49182;50.788;7.318;2023-08-06T22:44:19;100505.88;;;13.04;100.00
43125;BME280;49182;50.788;7.318;2023-08-06T22:49:23;100505.59;;;13.07;100.00
43125;BME280;49182;50.788;7.318;2023-08-06T22:54:24;100456.16;;;12.80;100.00
43125;BME280;49182;50.788;7.318;2023-08-06T22:59:26;100506.03;;;13.03;100.00
43125;BME280;49182;50.788;7.318;2023-08-06T23:04:29;100505.03;;;13.04;100.00
43125;BME280;49182;50.788;7.318;2023-08-06T23:09:31;100508.06;;;13.09;100.00
43125;BME280;49182;50.788;7.318;2023-08-06T23:14:33;100505.25;;;13.10;100.00
43125;BME280;49182;50.788;7.318;2023-08-06T23:19:36;100501.38;;;13.14;100.00
43125;BME280;49182;50.788;7.318;2023-08-06T23:24:37;100506.69;;;13.14;100.00
43125;BME280;49182;50.788;7.318;2023-08-06T23:29:39;100505.38;;;13.18;100.00
43125;BME280;49182;50.788;7.318;2023-08-06T23:34:42;100509.31;;;13.14;100.00
43125;BME280;49182;50.788;7.318;2023-08-06T23:39:54;100500.44;;;13.06;100.00
43125;BME280;49182;50.788;7.318;2023-08-06T23:44:56;100502.25;;;13.05;100.00
43125;BME280;49182;50.788;7.318;2023-08-06T23:49:59;100497.25;;;13.02;100.00
43125;BME280;49182;50.788;7.318;2023-08-06T23:55:00;100503.78;;;13.08;100.00
